Hagerstown Regional Richard A Henson Field Hagerstown US
ICAO: KHGR
IATA: HGR
Category: Medium
Scheduled Services: No

Elevation: 703 ft
TransAlt. 18000 ft.

Airport Communications:
ASOS:126.375
WASHINGTON CNTR:134.15
CTAF:120.3
GND:121.9
AR OPS:32.3
LEESBURG RDO:109.8
TWR:120.3
UNICOM:122.95

KHGR Zoom In..

Runways:

(A) RW 02 length 3165 ft width 100 ft
---- / hdg 26

(B) RW 09 length 7000 ft width 150 ft
ILS 111.90 / hdg 92

(C) RW 20 length 3165 ft width 100 ft
---- / hdg 206

(D) RW 27 length 7000 ft width 150 ft
ILS 111.90 / hdg 272

Location; KHGR
Day. 23 / Time. 21.53 Zulu
* Altimeter: 29.73
* Temperature: 10° c. 50°f.
* Wind from: 270° Speed 14 kn with Gusts up to 22 kn.
Dewpoint: -02° c.
Visibility: 10 Statute Miles.
Clouds: Broken 6500 ft.

KHGR 232153Z 27014G22KT 10SM BKN065 10/M02 A2973 RMK AO2 PK WND 28031/2104 SLP080 T01001022


Wind From 270°
Speed 14 kn.

YouTube Music Video
 
jpsmedia.com for Web Design  worldairports.se 2018   terms of use